Villacoublay, France

8:18 PM CET on February 13, 2016 (GMT +0100)
Velizy Air Base | | Change Station
CLOSE
Current Station
Airport
Location: Villacoublay,
Elevation: 587 ft
Nearby Weather Stations

Elev 587 ft 48.77 °N, 2.20 °E | Updated 18 minutes ago

Light Rain
Light Rain
45 °F
Feels Like 37 °F
N
16
Wind Variable Wind from West

Today
High -- | Low -- °F
--% Chance of Precip.
Yesterday
High -- | Low -- °F
Precip. -- in
Pressure 29.00 in
Visibility 6.2 miles
Clouds Overcast 1000 ft
Windchill 37 °F
Dew Point 45 °F
Humidity 100%
Rainfall 0.00 in
Snow Depth Not available.
8:03 AM 6:07 PM
Waxing Crescent, 33% visible
METAR LFPV 131900Z AUTO 27014KT 9999 3700 -RA OVC010 07/07 Q0982
Pressure 29.00 in
Visibility 6.2 miles
Clouds Overcast 1000 ft
Windchill 37 °F
Dew Point 45 °F
Humidity 100%
Rainfall 0.00 in
Snow Depth Not available.
8:03 AM 6:07 PM
Waxing Crescent, 33% visible
METAR LFPV 131900Z AUTO 27014KT 9999 3700 -RA OVC010 07/07 Q0982

10-Day Weather Forecast

Almanac

Astronomy

Feb. 13, 2016 Rise Set
Actual Time
Civil Twilight
Nautical Twilight
Astronomical Twilight
Moon
Length of Visible Light
Length of Day
Tomorrow will be .
, % of the Moon is Illuminated

Today's Extremes

Country Highs Country Lows

Community

WunderPhotos

Upload Photos

1,892,642 photos uploaded!

WunderBlog® & News

Nearby

Air Quality

  Air Quality AQ Index Pollutant
Not available.

Snow Depth

Station Depth Elevation

Earthquake Activity

City Distance Mag. Time & Date
Minimum magnitude displayed is 2.5.

Coastal Water Temperatures

Place Temperature

Stations

Nearby Weather Stations

Station Location Temp. Windchill Dew Point Humidity Wind Precip. Elev Updated Type